createdAt,value
2023-05-08T00:00:15.492Z,8.52
2023-05-08T00:02:46.662Z,8.51
2023-05-08T00:05:14.676Z,8.56
2023-05-08T00:07:43.545Z,8.08
2023-05-08T00:10:12.656Z,7.86
2023-05-08T00:12:40.703Z,7.95
2023-05-08T00:15:10.780Z,8.06
2023-05-08T00:17:40.001Z,7.96
2023-05-08T00:20:09.021Z,8.13
2023-05-08T00:22:36.757Z,8.40
2023-05-08T00:25:05.865Z,8.30
2023-05-08T00:27:33.653Z,8.15
2023-05-08T00:30:01.729Z,8.25
2023-05-08T00:32:30.012Z,8.12
2023-05-08T00:34:59.620Z,7.94
2023-05-08T00:37:27.598Z,7.98
2023-05-08T00:39:55.879Z,8.25
2023-05-08T00:42:23.794Z,8.03
2023-05-08T00:44:51.644Z,8.22
2023-05-08T00:47:19.816Z,8.29
2023-05-08T00:49:47.793Z,8.33
2023-05-08T00:52:17.269Z,8.22
2023-05-08T00:54:45.499Z,8.22
2023-05-08T00:57:13.582Z,8.19
2023-05-08T00:59:41.847Z,7.90
2023-05-08T01:02:09.970Z,8.01
2023-05-08T01:04:38.312Z,8.15
2023-05-08T01:07:06.167Z,7.89
2023-05-08T01:09:35.821Z,7.91
2023-05-08T01:12:08.700Z,7.72
2023-05-08T01:14:49.190Z,7.57
2023-05-08T01:17:18.522Z,7.48
2023-05-08T01:20:06.481Z,7.57
2023-05-08T01:22:58.548Z,7.61
2023-05-08T01:26:08.305Z,7.46
2023-05-08T01:29:01.720Z,7.44
2023-05-08T01:31:33.400Z,7.31
2023-05-08T01:34:06.019Z,7.30
2023-05-08T01:36:35.586Z,7.44
2023-05-08T01:39:09.343Z,7.44
2023-05-08T01:41:37.217Z,7.38
2023-05-08T01:44:10.522Z,7.44
2023-05-08T01:46:38.397Z,7.51
2023-05-08T01:49:09.280Z,7.53
2023-05-08T01:51:39.688Z,7.40
2023-05-08T01:54:10.367Z,7.39
2023-05-08T01:56:38.485Z,7.36
2023-05-08T01:59:06.341Z,7.29
2023-05-08T02:01:34.632Z,7.22
2023-05-08T02:04:02.535Z,7.25
2023-05-08T02:06:32.382Z,7.45
2023-05-08T02:09:03.396Z,7.51
2023-05-08T02:11:32.960Z,7.48
2023-05-08T02:14:01.595Z,7.45
2023-05-08T02:16:29.823Z,7.49
2023-05-08T02:19:00.150Z,7.43
2023-05-08T02:21:28.064Z,7.28
2023-05-08T02:23:57.925Z,7.36
2023-05-08T02:26:25.817Z,7.01
2023-05-08T02:28:56.164Z,7.05
2023-05-08T02:31:24.164Z,7.20
2023-05-08T02:33:52.011Z,6.40
2023-05-08T02:36:20.327Z,6.39
2023-05-08T02:38:49.438Z,6.51
2023-05-08T02:41:19.060Z,6.59
2023-05-08T02:43:46.984Z,6.62
2023-05-08T02:46:16.438Z,6.38
2023-05-08T02:48:48.988Z,6.15
2023-05-08T02:51:21.232Z,5.78
2023-05-08T02:53:52.507Z,5.90
2023-05-08T02:56:29.351Z,6.04
2023-05-08T02:59:00.839Z,6.18
2023-05-08T03:01:30.187Z,6.35
2023-05-08T03:04:01.102Z,6.49
2023-05-08T03:06:28.841Z,6.75
2023-05-08T03:08:56.794Z,6.87
2023-05-08T03:11:29.646Z,6.58
2023-05-08T03:13:58.303Z,6.58
2023-05-08T03:16:26.999Z,6.56
2023-05-08T03:18:56.139Z,6.73
2023-05-08T03:21:24.074Z,6.48
2023-05-08T03:23:52.549Z,6.55
2023-05-08T03:26:21.287Z,6.42
2023-05-08T03:28:50.945Z,6.55
2023-05-08T03:31:22.584Z,6.44
2023-05-08T03:33:52.030Z,6.38
2023-05-08T03:36:19.932Z,6.40
2023-05-08T03:38:48.015Z,6.22
2023-05-08T03:41:15.747Z,6.20
2023-05-08T03:43:43.351Z,6.17
2023-05-08T03:46:12.437Z,6.22
2023-05-08T03:48:40.230Z,6.35
2023-05-08T03:51:07.957Z,6.43
2023-05-08T03:53:38.513Z,6.42
2023-05-08T03:56:06.414Z,6.32
2023-05-08T03:58:35.762Z,6.31
2023-05-08T04:01:05.080Z,6.61
2023-05-08T04:03:38.056Z,6.58
2023-05-08T04:06:08.175Z,6.47
2023-05-08T04:08:38.073Z,6.46
2023-05-08T04:11:07.190Z,6.52
2023-05-08T04:13:36.823Z,6.59
2023-05-08T04:16:06.736Z,6.65
2023-05-08T04:18:36.662Z,6.68
2023-05-08T04:21:04.515Z,6.85
2023-05-08T04:23:32.205Z,7.01
2023-05-08T04:25:59.941Z,7.01
2023-05-08T04:28:28.945Z,6.87
2023-05-08T04:30:56.523Z,6.81
2023-05-08T04:33:24.174Z,6.83
2023-05-08T04:36:17.402Z,6.94
2023-05-08T04:38:51.697Z,6.92
2023-05-08T04:41:19.360Z,7.03
2023-05-08T04:43:47.181Z,7.13
2023-05-08T04:46:15.141Z,7.28
2023-05-08T04:48:42.776Z,7.42
2023-05-08T04:51:11.869Z,7.31
2023-05-08T04:53:39.649Z,7.74
2023-05-08T04:56:07.504Z,7.43
2023-05-08T04:58:35.465Z,7.74
2023-05-08T05:01:03.505Z,7.88
2023-05-08T05:03:32.228Z,8.01
2023-05-08T05:05:59.981Z,8.04
2023-05-08T05:08:29.348Z,8.16
2023-05-08T05:10:58.125Z,7.85
2023-05-08T05:13:26.094Z,7.86
2023-05-08T05:15:54.489Z,8.18
2023-05-08T05:18:25.546Z,8.38
2023-05-08T05:20:54.841Z,8.42
2023-05-08T05:23:22.839Z,8.49
2023-05-08T05:25:51.809Z,8.46
2023-05-08T05:28:19.480Z,8.46
2023-05-08T05:30:50.763Z,8.46
2023-05-08T05:33:18.604Z,8.49
2023-05-08T05:35:48.700Z,8.58
2023-05-08T05:38:22.313Z,8.44
2023-05-08T05:40:50.422Z,8.60
2023-05-08T05:43:19.912Z,8.82
2023-05-08T05:45:47.927Z,8.70
2023-05-08T05:48:15.861Z,8.71
2023-05-08T05:50:43.767Z,8.78
2023-05-08T05:53:13.042Z,8.85
2023-05-08T05:55:41.357Z,9.09
2023-05-08T05:58:09.240Z,9.48
2023-05-08T06:00:38.286Z,9.76
2023-05-08T06:03:06.038Z,9.61
2023-05-08T06:05:35.421Z,9.42
2023-05-08T06:08:03.141Z,9.54
2023-05-08T06:10:30.824Z,9.59
2023-05-08T06:12:58.624Z,9.62
2023-05-08T06:15:26.924Z,9.43
2023-05-08T06:17:56.655Z,9.73
2023-05-08T06:20:25.582Z,9.90
2023-05-08T06:22:54.205Z,9.83
2023-05-08T06:25:21.784Z,10.06
2023-05-08T06:27:49.565Z,10.05
2023-05-08T06:30:17.157Z,10.24
2023-05-08T06:32:44.735Z,10.29
2023-05-08T06:35:15.544Z,10.23
2023-05-08T06:37:43.215Z,10.38
2023-05-08T06:40:12.888Z,10.47
2023-05-08T06:42:40.680Z,10.72
2023-05-08T06:45:10.582Z,10.88
2023-05-08T06:47:38.458Z,10.97
2023-05-08T06:50:06.814Z,10.97
2023-05-08T06:52:35.801Z,11.09
2023-05-08T06:55:03.371Z,11.07
2023-05-08T06:57:31.219Z,11.07
2023-05-08T06:59:58.771Z,11.46
2023-05-08T07:02:26.496Z,11.45
2023-05-08T07:04:54.125Z,11.32
2023-05-08T07:07:21.700Z,11.26
2023-05-08T07:09:50.644Z,11.69
2023-05-08T07:12:18.255Z,11.69
2023-05-08T07:14:45.845Z,11.53
2023-05-08T07:17:13.358Z,11.66
2023-05-08T07:19:41.488Z,11.71
2023-05-08T07:22:09.025Z,11.82
2023-05-08T07:24:36.584Z,11.85
2023-05-08T07:27:05.481Z,12.17
2023-05-08T07:29:33.051Z,11.90
2023-05-08T07:32:00.667Z,11.86
2023-05-08T07:34:28.327Z,11.63
2023-05-08T07:36:55.943Z,11.97
2023-05-08T07:39:23.493Z,12.15
2023-05-08T07:41:51.322Z,12.62
2023-05-08T07:44:20.236Z,12.55
2023-05-08T07:46:47.827Z,12.54
2023-05-08T07:49:15.355Z,12.31
2023-05-08T07:51:42.896Z,12.72
2023-05-08T07:54:13.548Z,12.69
2023-05-08T07:56:41.319Z,12.77
2023-05-08T07:59:08.881Z,12.82
2023-05-08T08:01:37.879Z,13.16
2023-05-08T08:04:05.999Z,12.78
2023-05-08T08:06:39.809Z,13.06
2023-05-08T08:09:07.420Z,12.95
2023-05-08T08:11:34.962Z,13.04
2023-05-08T08:14:02.698Z,12.86
2023-05-08T08:16:33.272Z,13.25
2023-05-08T08:19:02.205Z,13.40
2023-05-08T08:21:29.914Z,13.53
2023-05-08T08:23:58.221Z,13.67
2023-05-08T08:26:26.846Z,13.66
2023-05-08T08:28:54.377Z,13.75
2023-05-08T08:31:21.981Z,13.75
2023-05-08T08:33:49.586Z,13.91
2023-05-08T08:36:19.794Z,13.71
2023-05-08T08:38:47.333Z,13.79
2023-05-08T08:41:15.157Z,13.81
2023-05-08T08:43:43.428Z,13.96
2023-05-08T08:46:12.210Z,14.09
2023-05-08T08:48:39.810Z,14.24
2023-05-08T08:51:07.846Z,14.21
2023-05-08T08:53:39.997Z,14.23
2023-05-08T08:56:08.425Z,14.52
2023-05-08T08:58:39.100Z,14.62
2023-05-08T09:01:06.875Z,14.63
2023-05-08T09:03:34.565Z,14.76
2023-05-08T09:06:02.263Z,14.69
2023-05-08T09:08:29.939Z,15.07
2023-05-08T09:10:59.094Z,14.86
2023-05-08T09:13:26.942Z,15.05
2023-05-08T09:15:54.541Z,14.83
2023-05-08T09:18:22.109Z,15.15
2023-05-08T09:20:58.248Z,14.82
2023-05-08T09:23:26.354Z,15.29
2023-05-08T09:25:54.006Z,14.98
2023-05-08T09:28:24.752Z,14.98
2023-05-08T09:30:53.021Z,14.86
2023-05-08T09:33:20.595Z,14.69
2023-05-08T09:35:51.412Z,14.86
2023-05-08T09:38:34.640Z,14.87
2023-05-08T09:41:08.830Z,15.11
2023-05-08T09:43:39.271Z,15.16
2023-05-08T09:46:20.690Z,15.09
2023-05-08T09:48:48.326Z,15.26
2023-05-08T09:51:15.871Z,15.46
2023-05-08T09:53:44.745Z,15.49
2023-05-08T09:56:12.344Z,15.71
2023-05-08T09:58:40.545Z,15.82
2023-05-08T10:01:10.505Z,15.84
2023-05-08T10:03:47.934Z,15.68
2023-05-08T10:06:15.839Z,16.03
2023-05-08T10:08:44.777Z,15.88
2023-05-08T10:11:16.164Z,15.96
2023-05-08T10:13:43.897Z,16.04
2023-05-08T10:16:13.643Z,15.95
2023-05-08T10:18:41.325Z,16.01
2023-05-08T10:21:11.593Z,15.98
2023-05-08T10:23:39.146Z,16.11
2023-05-08T10:26:08.761Z,16.31
2023-05-08T10:28:41.657Z,16.17
2023-05-08T10:31:09.325Z,16.15
2023-05-08T10:33:36.966Z,16.58
2023-05-08T10:36:06.886Z,16.52
2023-05-08T10:38:36.797Z,16.44
2023-05-08T10:41:04.433Z,16.78
2023-05-08T10:43:33.958Z,16.57
2023-05-08T10:46:03.459Z,16.90
2023-05-08T10:48:34.835Z,16.78
2023-05-08T10:51:04.106Z,16.79
2023-05-08T10:53:33.111Z,16.58
2023-05-08T10:56:00.649Z,16.76
2023-05-08T10:58:31.688Z,16.66
2023-05-08T11:01:16.349Z,16.64
2023-05-08T11:03:50.722Z,16.47
2023-05-08T11:06:19.276Z,16.41
2023-05-08T11:08:54.519Z,16.56
2023-05-08T11:11:29.396Z,16.93
2023-05-08T11:13:59.928Z,17.45
2023-05-08T11:16:46.598Z,17.09
2023-05-08T11:19:21.751Z,17.31
2023-05-08T11:22:14.199Z,17.38
2023-05-08T11:24:44.693Z,17.56
2023-05-08T11:27:15.270Z,17.61
2023-05-08T11:29:44.518Z,17.32
2023-05-08T11:32:12.203Z,17.26
2023-05-08T11:34:47.595Z,17.48
2023-05-08T11:37:22.097Z,17.92
2023-05-08T11:39:49.697Z,17.85
2023-05-08T11:42:34.440Z,17.61
2023-05-08T11:45:08.137Z,17.31
2023-05-08T11:47:38.743Z,17.51
2023-05-08T11:50:08.400Z,17.59
2023-05-08T11:52:36.038Z,17.50
2023-05-08T11:55:07.121Z,17.33
2023-05-08T11:57:34.687Z,17.76
2023-05-08T12:00:07.833Z,17.53
2023-05-08T12:02:39.248Z,17.71
2023-05-08T12:05:09.001Z,17.66
2023-05-08T12:07:43.810Z,17.26
2023-05-08T12:10:11.854Z,17.68
2023-05-08T12:12:39.778Z,17.88
2023-05-08T12:15:09.186Z,17.97
2023-05-08T12:17:36.965Z,18.25
2023-05-08T12:20:13.744Z,17.95
2023-05-08T12:22:41.666Z,17.58
2023-05-08T12:25:10.052Z,17.80
2023-05-08T12:27:39.778Z,17.99
2023-05-08T12:30:08.663Z,18.01
2023-05-08T12:32:36.583Z,17.72
2023-05-08T12:35:04.168Z,17.53
2023-05-08T12:37:33.146Z,17.67
2023-05-08T12:40:04.930Z,17.85
2023-05-08T12:42:47.731Z,17.44
2023-05-08T12:45:18.676Z,17.58
2023-05-08T12:47:49.331Z,17.52
2023-05-08T12:50:17.246Z,17.60
2023-05-08T12:52:46.277Z,17.75
2023-05-08T12:55:26.610Z,18.03
2023-05-08T12:58:00.042Z,18.04
2023-05-08T13:00:37.954Z,17.73
2023-05-08T13:03:08.669Z,17.92
2023-05-08T13:05:36.752Z,18.04
2023-05-08T13:08:06.089Z,17.87
2023-05-08T13:10:46.606Z,18.10
2023-05-08T13:13:14.378Z,17.95
2023-05-08T13:15:42.110Z,17.98
2023-05-08T13:18:10.455Z,18.27
2023-05-08T13:20:38.268Z,17.98
2023-05-08T13:23:07.245Z,18.14
2023-05-08T13:25:37.854Z,17.90
2023-05-08T13:28:08.601Z,17.86
2023-05-08T13:30:36.662Z,17.97
2023-05-08T13:33:04.688Z,18.02
2023-05-08T13:35:32.365Z,18.00
2023-05-08T13:37:59.973Z,17.85
2023-05-08T13:40:28.884Z,17.70
2023-05-08T13:42:59.964Z,17.83
2023-05-08T13:45:30.547Z,18.17
2023-05-08T13:47:58.293Z,18.03
2023-05-08T13:50:25.871Z,18.27
2023-05-08T13:52:55.012Z,18.30
2023-05-08T13:55:23.319Z,18.28
2023-05-08T13:57:52.588Z,18.00
2023-05-08T14:00:20.668Z,17.78
2023-05-08T14:02:50.665Z,17.76
2023-05-08T14:05:22.684Z,17.93
2023-05-08T14:07:51.402Z,17.80
2023-05-08T14:10:19.012Z,17.81
2023-05-08T14:12:46.816Z,17.69
2023-05-08T14:15:16.190Z,17.54
2023-05-08T14:17:44.066Z,17.66
2023-05-08T14:20:14.620Z,17.84
2023-05-08T14:22:53.848Z,17.83
2023-05-08T14:25:21.955Z,17.96
2023-05-08T14:27:52.239Z,18.38
2023-05-08T14:30:21.836Z,18.18
2023-05-08T14:32:49.566Z,17.98
2023-05-08T14:35:17.269Z,17.82
2023-05-08T14:37:47.361Z,17.71
2023-05-08T14:40:15.133Z,17.54
2023-05-08T14:42:52.585Z,17.45
2023-05-08T14:45:26.462Z,17.40
2023-05-08T14:47:55.489Z,17.51
2023-05-08T14:50:24.331Z,17.38
2023-05-08T14:52:54.814Z,17.55
2023-05-08T14:55:25.257Z,17.45
2023-05-08T14:57:55.469Z,17.37
2023-05-08T15:00:24.267Z,17.40
2023-05-08T15:02:51.930Z,17.42
2023-05-08T15:05:21.074Z,17.38
2023-05-08T15:07:50.947Z,17.26
2023-05-08T15:10:18.592Z,17.18
2023-05-08T15:12:46.307Z,17.37
2023-05-08T15:15:14.308Z,17.22
2023-05-08T15:17:42.330Z,17.19
2023-05-08T15:20:10.660Z,17.00
2023-05-08T15:22:40.731Z,17.11
2023-05-08T15:25:16.328Z,16.92
2023-05-08T15:27:44.428Z,16.68
2023-05-08T15:30:12.469Z,16.64
2023-05-08T15:32:43.425Z,16.59
2023-05-08T15:35:11.220Z,16.49
2023-05-08T15:37:40.118Z,16.49
2023-05-08T15:40:08.164Z,16.41
2023-05-08T15:42:38.826Z,16.33
2023-05-08T15:45:06.731Z,16.14
2023-05-08T15:47:34.321Z,16.15
2023-05-08T15:50:02.051Z,16.13
2023-05-08T15:52:29.618Z,16.12
2023-05-08T15:54:58.578Z,15.85
2023-05-08T15:57:27.112Z,15.86
2023-05-08T15:59:57.418Z,15.75
2023-05-08T16:02:28.046Z,15.72
2023-05-08T16:04:55.797Z,15.64
2023-05-08T16:07:27.007Z,15.56
2023-05-08T16:09:54.712Z,15.60
2023-05-08T16:12:23.632Z,15.57
2023-05-08T16:14:51.285Z,15.52
2023-05-08T16:17:18.859Z,15.50
2023-05-08T16:19:48.834Z,15.57
2023-05-08T16:22:16.615Z,15.51
2023-05-08T16:24:44.239Z,15.56
2023-05-08T16:27:12.456Z,15.67
2023-05-08T16:29:41.438Z,15.73
2023-05-08T16:32:10.175Z,15.51
2023-05-08T16:34:38.496Z,15.49
2023-05-08T16:37:06.477Z,15.41
2023-05-08T16:39:34.041Z,15.45
2023-05-08T16:42:02.005Z,15.53
2023-05-08T16:44:32.025Z,15.58
2023-05-08T16:47:01.169Z,15.49
2023-05-08T16:49:28.762Z,15.57
2023-05-08T16:51:56.611Z,15.64
2023-05-08T16:54:24.344Z,15.81
2023-05-08T16:56:53.198Z,15.51
2023-05-08T16:59:20.872Z,15.39
2023-05-08T17:01:51.500Z,15.51
2023-05-08T17:04:20.807Z,15.55
2023-05-08T17:06:48.357Z,15.59
2023-05-08T17:10:21.943Z,15.36
2023-05-08T17:13:06.052Z,15.48
2023-05-08T17:15:53.795Z,15.54
2023-05-08T17:18:58.529Z,15.51
2023-05-08T17:21:54.781Z,15.47
2023-05-08T17:25:01.308Z,15.43
2023-05-08T17:28:17.858Z,15.31
2023-05-08T17:51:04.115Z,14.53
2023-05-08T17:53:26.251Z,14.81
2023-05-08T17:53:31.753Z,14.50
2023-05-08T17:55:59.629Z,14.37
2023-05-08T17:58:27.250Z,14.43
2023-05-08T18:00:56.088Z,14.19
2023-05-08T18:03:25.419Z,14.37
2023-05-08T18:05:57.917Z,14.40
2023-05-08T18:08:25.527Z,14.54
2023-05-08T18:10:53.293Z,14.59
2023-05-08T18:13:30.629Z,14.51
2023-05-08T18:16:01.120Z,14.52
2023-05-08T18:18:31.694Z,14.51
2023-05-08T18:21:04.093Z,14.41
2023-05-08T18:23:34.323Z,14.30
2023-05-08T18:26:07.740Z,14.30
2023-05-08T18:28:41.178Z,14.24
2023-05-08T18:31:16.413Z,14.18
2023-05-08T18:33:53.486Z,14.23
2023-05-08T18:36:21.097Z,14.27
2023-05-08T18:38:48.847Z,13.82
2023-05-08T18:41:16.965Z,13.74
2023-05-08T18:43:47.129Z,13.32
2023-05-08T18:49:09.732Z,12.84
2023-05-08T18:51:44.784Z,12.59
2023-05-08T18:54:12.908Z,13.00
2023-05-08T18:56:46.033Z,12.70
2023-05-08T18:59:18.993Z,12.60
2023-05-08T19:01:46.781Z,12.12
2023-05-08T19:04:30.744Z,11.98
2023-05-08T19:07:03.901Z,11.48
2023-05-08T19:09:37.789Z,11.57
2023-05-08T19:12:07.348Z,11.62
2023-05-08T19:14:43.656Z,11.32
2023-05-08T19:17:11.409Z,11.00
2023-05-08T19:19:46.151Z,11.05
2023-05-08T19:22:22.075Z,10.56
2023-05-08T19:24:49.927Z,10.33
2023-05-08T19:27:18.556Z,10.08
2023-05-08T19:29:48.542Z,10.30
2023-05-08T19:32:18.994Z,10.90
2023-05-08T19:34:48.213Z,10.89
2023-05-08T19:37:16.256Z,10.89
2023-05-08T19:39:44.218Z,10.20
2023-05-08T19:42:14.054Z,10.07
2023-05-08T19:44:44.432Z,9.59
2023-05-08T19:47:17.560Z,9.73
2023-05-08T19:53:08.111Z,10.05
2023-05-08T19:55:39.836Z,10.26
2023-05-08T19:58:07.523Z,10.14
2023-05-08T20:00:37.103Z,9.85
2023-05-08T20:03:07.280Z,10.14
2023-05-08T20:05:38.264Z,10.04
2023-05-08T20:08:07.862Z,10.04
2023-05-08T20:10:39.536Z,9.75
2023-05-08T20:13:10.030Z,9.94
2023-05-08T20:15:37.886Z,10.06
2023-05-08T20:18:11.553Z,10.28
2023-05-08T20:20:39.254Z,10.22
2023-05-08T20:23:10.382Z,10.32
2023-05-08T20:25:46.052Z,10.32
2023-05-08T20:28:16.301Z,10.67
2023-05-08T20:30:45.804Z,10.55
2023-05-08T20:33:13.587Z,10.68
2023-05-08T20:35:41.195Z,10.47
2023-05-08T20:38:11.969Z,10.27
2023-05-08T20:40:44.335Z,10.14
2023-05-08T20:43:13.340Z,10.61
2023-05-08T20:45:43.314Z,10.91
2023-05-08T20:48:11.050Z,11.02
2023-05-08T20:50:38.747Z,11.14
2023-05-08T20:53:06.301Z,11.17
2023-05-08T20:55:34.036Z,11.28
2023-05-08T20:58:02.019Z,11.36
2023-05-08T21:00:31.204Z,11.32
2023-05-08T21:02:58.864Z,11.46
2023-05-08T21:05:26.725Z,11.37
2023-05-08T21:07:58.509Z,11.30
2023-05-08T21:10:32.124Z,11.21
2023-05-08T21:13:01.655Z,11.44
2023-05-08T21:15:31.201Z,11.33
2023-05-08T21:17:58.879Z,11.27
2023-05-08T21:20:26.459Z,11.23
2023-05-08T21:22:54.133Z,11.32
2023-05-08T21:25:22.279Z,11.45
2023-05-08T21:27:50.106Z,11.41
2023-05-08T21:30:17.890Z,11.43
2023-05-08T21:33:32.320Z,11.13
2023-05-08T21:36:01.389Z,11.12
2023-05-08T21:38:28.980Z,10.90
2023-05-08T21:40:56.679Z,11.15
2023-05-08T21:43:24.308Z,11.05
2023-05-08T21:45:51.912Z,11.06
2023-05-08T21:48:19.554Z,10.96
2023-05-08T21:50:47.165Z,10.97
2023-05-08T21:53:16.101Z,10.88
2023-05-08T21:55:43.717Z,11.04
2023-05-08T21:58:11.452Z,10.89
2023-05-08T22:00:39.029Z,10.93
2023-05-08T22:03:06.762Z,10.74
2023-05-08T22:05:34.521Z,10.80
2023-05-08T22:08:02.092Z,10.84
2023-05-08T22:10:31.054Z,10.98
2023-05-08T22:12:58.870Z,10.55
2023-05-08T22:15:30.303Z,10.41
2023-05-08T22:17:58.750Z,10.34
2023-05-08T22:20:26.607Z,10.33
2023-05-08T22:22:54.355Z,10.40
2023-05-08T22:25:22.433Z,10.33
2023-05-08T22:27:51.422Z,10.28
2023-05-08T22:30:19.454Z,10.17
2023-05-08T22:32:47.853Z,10.08
2023-05-08T22:35:15.826Z,9.98
2023-05-08T22:37:43.530Z,10.09
2023-05-08T22:40:11.402Z,10.05
2023-05-08T22:42:39.013Z,10.05
2023-05-08T22:45:08.738Z,9.94
2023-05-08T22:47:36.441Z,9.60
2023-05-08T22:50:08.323Z,9.42
2023-05-08T22:52:36.142Z,9.59
2023-05-08T22:55:03.863Z,9.79
2023-05-08T22:57:31.467Z,9.78
2023-05-08T22:59:59.055Z,9.60
2023-05-08T23:02:28.334Z,9.45
2023-05-08T23:04:56.421Z,9.38
2023-05-08T23:07:24.062Z,9.29
2023-05-08T23:09:51.614Z,9.30
2023-05-08T23:12:19.370Z,9.22
2023-05-08T23:14:46.934Z,9.04
2023-05-08T23:17:14.811Z,8.96
2023-05-08T23:19:45.306Z,8.93
2023-05-08T23:22:13.182Z,8.86
2023-05-08T23:24:40.779Z,8.92
2023-05-08T23:27:08.427Z,8.80
2023-05-08T23:29:36.061Z,8.81
2023-05-08T23:32:03.577Z,8.87
2023-05-08T23:34:31.206Z,8.78
2023-05-08T23:37:01.138Z,8.80
2023-05-08T23:39:28.697Z,8.78
2023-05-08T23:41:56.254Z,8.70
2023-05-08T23:44:23.883Z,8.69
2023-05-08T23:46:51.434Z,8.71
2023-05-08T23:49:19.124Z,8.67
2023-05-08T23:51:46.664Z,8.60
2023-05-08T23:54:15.889Z,8.46
2023-05-08T23:56:43.523Z,8.49
2023-05-08T23:59:14.294Z,8.52
